createdAt,value
2018-04-25T00:01:47.631Z,14.55
2018-04-25T00:04:14.283Z,14.10
2018-04-25T00:06:40.921Z,12.60
2018-04-25T00:09:07.560Z,12.70
2018-04-25T00:11:34.234Z,13.95
2018-04-25T00:14:00.955Z,10.40
2018-04-25T00:16:27.584Z,12.60
2018-04-25T00:18:54.331Z,13.15
2018-04-25T00:21:21.076Z,13.38
2018-04-25T00:23:47.708Z,13.60
2018-04-25T00:26:14.447Z,14.50
2018-04-25T00:28:41.077Z,14.35
2018-04-25T00:31:07.716Z,14.30
2018-04-25T00:33:34.367Z,15.82
2018-04-25T00:36:01.007Z,15.13
2018-04-25T00:38:27.651Z,16.27
2018-04-25T00:40:54.391Z,14.07
2018-04-25T00:43:21.134Z,16.40
2018-04-25T00:45:47.787Z,15.93
2018-04-25T00:48:14.520Z,13.88
2018-04-25T00:50:41.149Z,15.20
2018-04-25T00:53:07.785Z,14.85
2018-04-25T00:55:34.535Z,14.65
2018-04-25T00:58:01.271Z,14.05
2018-04-25T01:00:28.014Z,15.55
2018-04-25T01:02:54.654Z,14.82
2018-04-25T01:05:21.288Z,14.50
2018-04-25T01:07:47.917Z,15.30
2018-04-25T01:10:14.616Z,15.35
2018-04-25T01:12:41.318Z,15.40
2018-04-25T01:15:07.954Z,16.00
2018-04-25T01:17:34.594Z,17.42
2018-04-25T01:20:01.969Z,15.73
2018-04-25T01:22:28.711Z,17.58
2018-04-25T01:24:55.355Z,15.55
2018-04-25T01:27:22.003Z,16.30
2018-04-25T01:29:48.630Z,17.35
2018-04-25T01:32:15.349Z,18.23
2018-04-25T01:34:41.984Z,17.98
2018-04-25T01:37:12.516Z,17.23
2018-04-25T01:39:41.058Z,19.12
2018-04-25T01:42:13.693Z,18.98
2018-04-25T01:44:40.416Z,20.05
2018-04-25T01:47:25.838Z,19.40
2018-04-25T01:50:10.200Z,20.23
2018-04-25T01:52:42.610Z,19.87
2018-04-25T01:55:15.135Z,18.95
2018-04-25T01:57:47.583Z,18.98
2018-04-25T02:00:19.974Z,20.80
2018-04-25T02:02:46.395Z,21.30
2018-04-25T02:05:13.032Z,21.25
2018-04-25T02:07:39.783Z,19.27
2018-04-25T02:10:06.508Z,20.70
2018-04-25T02:12:33.148Z,21.65
2018-04-25T02:14:59.796Z,22.23
2018-04-25T02:17:26.452Z,21.55
2018-04-25T02:19:53.166Z,21.75
2018-04-25T02:22:19.908Z,22.65
2018-04-25T02:24:46.573Z,23.15
2018-04-25T02:27:13.288Z,21.30
2018-04-25T02:29:39.935Z,22.62
2018-04-25T02:32:06.559Z,22.77
2018-04-25T02:34:33.202Z,23.77
2018-04-25T02:36:59.956Z,22.42
2018-04-25T02:39:26.701Z,22.60
2018-04-25T02:41:53.435Z,21.75
2018-04-25T02:44:20.075Z,23.98
2018-04-25T02:46:46.704Z,22.73
2018-04-25T02:49:13.351Z,22.73
2018-04-25T02:51:40.100Z,22.13
2018-04-25T02:54:06.728Z,23.85
2018-04-25T02:56:33.361Z,23.08
2018-04-25T02:59:00.118Z,23.10
2018-04-25T03:01:26.854Z,21.08
2018-04-25T03:03:53.490Z,23.45
2018-04-25T03:06:20.149Z,22.60
2018-04-25T03:08:46.775Z,22.42
2018-04-25T03:11:13.403Z,21.55
2018-04-25T03:13:40.051Z,21.30
2018-04-25T03:16:06.684Z,23.17
2018-04-25T03:18:33.315Z,21.70
2018-04-25T03:20:59.961Z,21.77
2018-04-25T03:23:26.596Z,22.15
2018-04-25T03:25:53.223Z,21.87
2018-04-25T03:28:19.875Z,23.42
2018-04-25T03:30:46.546Z,22.33
2018-04-25T03:33:13.263Z,22.62
2018-04-25T03:35:40.003Z,22.30
2018-04-25T03:38:06.631Z,23.83
2018-04-25T03:40:33.267Z,22.23
2018-04-25T03:42:59.910Z,23.65
2018-04-25T03:45:26.585Z,25.88
2018-04-25T03:47:53.222Z,22.87
2018-04-25T03:50:19.951Z,25.40
2018-04-25T03:52:46.604Z,24.30
2018-04-25T03:55:13.235Z,22.20
2018-04-25T03:57:39.960Z,26.40
2018-04-25T04:00:06.623Z,23.27
2018-04-25T04:02:33.252Z,21.87
2018-04-25T04:04:59.896Z,25.12
2018-04-25T04:07:26.523Z,21.20
2018-04-25T04:09:53.246Z,22.27
2018-04-25T04:12:19.995Z,23.10
2018-04-25T04:14:46.629Z,23.25
2018-04-25T04:17:13.283Z,21.30
2018-04-25T04:19:39.927Z,21.25
2018-04-25T04:22:06.560Z,21.83
2018-04-25T04:24:34.040Z,23.55
2018-04-25T04:27:00.760Z,22.08
2018-04-25T04:29:27.400Z,20.77
2018-04-25T04:31:54.041Z,21.98
2018-04-25T04:34:20.799Z,21.55
2018-04-25T04:36:47.432Z,23.15
2018-04-25T04:39:14.150Z,22.13
2018-04-25T04:41:40.803Z,19.20
2018-04-25T04:44:07.493Z,21.02
2018-04-25T04:46:35.072Z,22.30
2018-04-25T04:49:01.965Z,22.05
2018-04-25T04:51:28.598Z,21.90
2018-04-25T04:53:55.244Z,20.65
2018-04-25T04:56:21.948Z,21.83
2018-04-25T04:58:48.580Z,19.70
2018-04-25T05:01:15.235Z,21.00
2018-04-25T05:03:41.888Z,20.80
2018-04-25T05:06:08.520Z,20.00
2018-04-25T05:08:35.230Z,20.10
2018-04-25T05:11:01.921Z,20.52
2018-04-25T05:13:28.551Z,19.20
2018-04-25T05:15:55.178Z,18.65
2018-04-25T05:18:22.044Z,17.60
2018-04-25T05:20:49.603Z,17.75
2018-04-25T05:23:16.345Z,18.25
2018-04-25T05:25:43.292Z,17.77
2018-04-25T05:28:10.156Z,16.77
2018-04-25T05:30:36.832Z,16.77
2018-04-25T05:33:03.487Z,15.88
2018-04-25T05:35:30.315Z,15.43
2018-04-25T05:37:57.203Z,15.68
2018-04-25T05:40:24.150Z,15.73
2018-04-25T05:42:50.994Z,15.18
2018-04-25T05:45:18.657Z,14.82
2018-04-25T05:47:45.760Z,15.13
2018-04-25T05:50:14.288Z,16.10
2018-04-25T05:52:42.055Z,15.70
2018-04-25T05:55:09.205Z,14.48
2018-04-25T05:57:35.928Z,14.27
2018-04-25T06:00:02.689Z,15.30
2018-04-25T06:02:29.406Z,13.80
2018-04-25T06:04:56.068Z,14.13
2018-04-25T06:07:23.121Z,13.80
2018-04-25T06:09:49.857Z,11.88
2018-04-25T06:12:17.502Z,13.40
2018-04-25T06:14:45.902Z,11.63
2018-04-25T06:17:14.283Z,12.95
2018-04-25T06:19:42.626Z,13.02
2018-04-25T06:22:09.318Z,15.35
2018-04-25T06:24:36.020Z,13.15
2018-04-25T06:27:04.221Z,13.20
2018-04-25T06:29:32.152Z,14.25
2018-04-25T06:31:58.933Z,14.73
2018-04-25T06:34:27.082Z,13.35
2018-04-25T06:36:54.673Z,12.60
2018-04-25T06:39:21.440Z,12.88
2018-04-25T06:41:48.046Z,12.35
2018-04-25T06:44:14.757Z,11.70
2018-04-25T06:46:41.505Z,12.07
2018-04-25T06:49:08.135Z,12.37
2018-04-25T06:51:34.785Z,10.50
2018-04-25T06:54:01.447Z,12.02
2018-04-25T06:56:28.167Z,10.73
2018-04-25T06:58:54.791Z,10.93
2018-04-25T07:01:21.426Z,9.68
2018-04-25T07:03:48.070Z,9.82
2018-04-25T07:06:14.741Z,8.70
2018-04-25T07:08:41.460Z,9.25
2018-04-25T07:11:08.087Z,9.30
2018-04-25T07:13:34.727Z,7.80
2018-04-25T07:16:01.613Z,8.57
2018-04-25T07:18:28.243Z,8.23
2018-04-25T07:20:54.968Z,9.50
2018-04-25T07:23:21.616Z,7.05
2018-04-25T07:25:48.267Z,8.90
2018-04-25T07:28:14.903Z,7.90
2018-04-25T07:30:41.614Z,6.90
2018-04-25T07:33:08.228Z,7.45
2018-04-25T07:35:34.851Z,7.55
2018-04-25T07:38:01.538Z,7.53
2018-04-25T07:40:28.175Z,6.78
2018-04-25T07:42:54.808Z,8.18
2018-04-25T07:45:21.447Z,7.65
2018-04-25T07:47:48.072Z,7.35
2018-04-25T07:50:14.725Z,6.62
2018-04-25T07:52:41.468Z,6.12
2018-04-25T07:55:08.086Z,6.47
2018-04-25T07:57:34.779Z,7.10
2018-04-25T08:00:01.495Z,6.15
2018-04-25T08:02:28.235Z,6.53
2018-04-25T08:04:54.862Z,6.50
2018-04-25T08:07:21.612Z,5.95
2018-04-25T08:09:48.237Z,6.47
2018-04-25T08:12:20.876Z,6.20
2018-04-25T08:14:53.363Z,6.47
2018-04-25T08:17:26.019Z,5.07
2018-04-25T08:19:58.662Z,5.65
2018-04-25T08:22:25.295Z,5.18
2018-04-25T08:24:51.972Z,6.60
2018-04-25T08:27:18.586Z,5.12
2018-04-25T08:29:45.322Z,5.50
2018-04-25T08:32:11.978Z,5.30
2018-04-25T08:34:38.712Z,6.87
2018-04-25T08:37:05.477Z,5.47
2018-04-25T08:39:32.104Z,4.37
2018-04-25T08:41:58.858Z,5.05
2018-04-25T08:44:25.605Z,5.93
2018-04-25T08:46:52.306Z,4.87
2018-04-25T08:49:18.935Z,4.25
2018-04-25T08:51:45.653Z,5.07
2018-04-25T08:54:12.337Z,5.12
2018-04-25T08:56:39.076Z,5.55
2018-04-25T08:59:05.709Z,5.28
2018-04-25T09:01:32.378Z,4.22
2018-04-25T09:03:58.998Z,5.10
2018-04-25T09:06:25.727Z,5.25
2018-04-25T09:08:52.400Z,6.30
2018-04-25T09:11:19.024Z,4.65
2018-04-25T09:13:45.753Z,5.15
2018-04-25T09:16:12.371Z,4.60
2018-04-25T09:18:39.032Z,5.35
2018-04-25T09:21:05.690Z,4.50
2018-04-25T09:23:32.315Z,6.00
2018-04-25T09:25:58.938Z,5.82
2018-04-25T09:28:25.580Z,5.65
2018-04-25T09:30:52.202Z,4.32
2018-04-25T09:33:18.837Z,6.12
2018-04-25T09:35:45.602Z,5.70
2018-04-25T09:38:12.239Z,4.90
2018-04-25T09:40:38.868Z,4.25
2018-04-25T09:43:05.618Z,5.30
2018-04-25T09:45:32.234Z,5.00
2018-04-25T09:47:58.865Z,6.55
2018-04-25T09:50:25.515Z,5.50
2018-04-25T09:52:52.190Z,7.25
2018-04-25T09:55:18.810Z,5.62
2018-04-25T09:57:45.573Z,5.45
2018-04-25T10:00:12.118Z,5.03
2018-04-25T10:02:38.747Z,5.60
2018-04-25T10:05:05.397Z,4.87
2018-04-25T10:07:32.145Z,5.50
2018-04-25T10:09:58.878Z,5.03
2018-04-25T10:12:25.741Z,5.12
2018-04-25T10:14:52.438Z,4.70
2018-04-25T10:17:19.064Z,4.57
2018-04-25T10:19:45.827Z,4.85
2018-04-25T10:22:12.617Z,5.55
2018-04-25T10:24:39.335Z,5.32
2018-04-25T10:27:06.202Z,4.97
2018-04-25T10:29:32.973Z,5.00
2018-04-25T10:32:01.527Z,6.60
2018-04-25T10:34:29.246Z,4.53
2018-04-25T10:36:56.145Z,5.10
2018-04-25T10:39:23.013Z,5.50
2018-04-25T10:41:49.810Z,5.15
2018-04-25T10:44:16.697Z,4.60
2018-04-25T10:46:43.396Z,3.83
2018-04-25T10:49:10.058Z,4.50
2018-04-25T10:51:36.693Z,5.43
2018-04-25T10:54:03.409Z,5.07
2018-04-25T10:56:31.274Z,4.35
2018-04-25T10:58:58.938Z,4.40
2018-04-25T11:01:25.704Z,4.57
2018-04-25T11:03:52.429Z,5.40
2018-04-25T11:06:21.471Z,5.25
2018-04-25T11:08:48.462Z,5.55
2018-04-25T11:11:17.126Z,5.12
2018-04-25T11:13:44.813Z,5.43
2018-04-25T11:16:12.785Z,5.30
2018-04-25T11:18:40.476Z,5.72
2018-04-25T11:21:07.512Z,6.97
2018-04-25T11:23:34.314Z,5.50
2018-04-25T11:26:01.156Z,6.80
2018-04-25T11:28:27.898Z,5.95
2018-04-25T11:30:55.380Z,5.50
2018-04-25T11:33:22.122Z,6.57
2018-04-25T11:35:48.752Z,6.37
2018-04-25T11:38:15.375Z,5.40
2018-04-25T11:40:42.106Z,12.82
2018-04-25T11:43:08.736Z,6.18
2018-04-25T11:45:37.599Z,6.10
2018-04-25T11:48:04.257Z,6.55
2018-04-25T11:50:30.883Z,7.00
2018-04-25T11:52:57.905Z,6.47
2018-04-25T11:55:24.811Z,6.78
2018-04-25T11:57:51.655Z,6.25
2018-04-25T12:00:18.941Z,5.30
2018-04-25T12:02:46.732Z,6.07
2018-04-25T12:05:13.856Z,5.10
2018-04-25T12:07:40.905Z,6.18
2018-04-25T12:10:07.708Z,5.35
2018-04-25T12:12:34.695Z,4.80
2018-04-25T12:15:01.441Z,6.25
2018-04-25T12:17:28.088Z,7.15
2018-04-25T12:19:54.711Z,5.85
2018-04-25T12:22:21.427Z,6.43
2018-04-25T12:24:48.063Z,6.57
2018-04-25T12:27:14.687Z,5.37
2018-04-25T12:29:41.358Z,5.97
2018-04-25T12:32:08.087Z,6.45
2018-04-25T12:34:34.722Z,6.03
2018-04-25T12:37:01.371Z,7.05
2018-04-25T12:39:28.015Z,7.50
2018-04-25T12:41:54.639Z,5.72
2018-04-25T12:44:21.278Z,6.57
2018-04-25T12:46:47.919Z,6.40
2018-04-25T12:49:14.670Z,6.72
2018-04-25T12:51:41.299Z,6.45
2018-04-25T12:54:07.930Z,6.28
2018-04-25T12:56:34.547Z,6.35
2018-04-25T12:59:01.216Z,5.18
2018-04-25T13:01:27.986Z,6.50
2018-04-25T13:03:54.613Z,5.40
2018-04-25T13:06:21.369Z,6.55
2018-04-25T13:08:48.012Z,5.75
2018-04-25T13:11:14.727Z,6.00
2018-04-25T13:13:41.388Z,6.80
2018-04-25T13:16:08.036Z,5.87
2018-04-25T13:18:34.735Z,6.32
2018-04-25T13:21:01.385Z,5.97
2018-04-25T13:23:28.036Z,7.03
2018-04-25T13:25:54.658Z,6.90
2018-04-25T13:28:21.288Z,6.60
2018-04-25T13:30:47.929Z,6.72
2018-04-25T13:33:14.590Z,5.78
2018-04-25T13:35:41.320Z,7.05
2018-04-25T13:38:07.955Z,6.70
2018-04-25T13:40:34.598Z,5.97
2018-04-25T13:43:01.239Z,6.32
2018-04-25T13:45:27.874Z,6.05
2018-04-25T13:47:54.511Z,5.80
2018-04-25T13:50:21.140Z,5.47
2018-04-25T13:52:47.891Z,5.35
2018-04-25T13:55:14.519Z,5.50
2018-04-25T13:57:41.169Z,4.93
2018-04-25T14:00:07.801Z,7.05
2018-04-25T14:02:34.430Z,5.55
2018-04-25T14:05:01.044Z,5.78
2018-04-25T14:07:27.694Z,5.68
2018-04-25T14:09:54.329Z,5.82
2018-04-25T14:12:21.145Z,5.65
2018-04-25T14:14:47.907Z,5.62
2018-04-25T14:17:14.535Z,5.53
2018-04-25T14:19:41.227Z,5.78
2018-04-25T14:22:07.872Z,5.20
2018-04-25T14:24:34.591Z,7.30
2018-04-25T14:27:01.149Z,6.78
2018-04-25T14:29:27.888Z,6.15
2018-04-25T14:31:54.505Z,4.65
2018-04-25T14:34:21.122Z,6.03
2018-04-25T14:36:47.764Z,5.15
2018-04-25T14:39:14.412Z,3.28
2018-04-25T14:41:41.035Z,3.80
2018-04-25T14:44:07.728Z,2.70
2018-04-25T14:46:34.359Z,2.90
2018-04-25T14:49:00.984Z,2.50
2018-04-25T14:51:27.623Z,3.22
2018-04-25T14:53:54.251Z,2.65
2018-04-25T14:56:20.883Z,3.37
2018-04-25T14:58:47.531Z,3.10
2018-04-25T15:01:14.224Z,2.87
2018-04-25T15:03:40.846Z,3.37
2018-04-25T15:06:07.493Z,3.08
2018-04-25T15:08:34.124Z,2.80
2018-04-25T15:11:00.853Z,3.30
2018-04-25T15:13:27.502Z,3.30
2018-04-25T15:15:54.236Z,3.75
2018-04-25T15:18:20.854Z,3.55
2018-04-25T15:20:47.503Z,3.60
2018-04-25T15:23:14.123Z,3.20
2018-04-25T15:25:40.754Z,3.95
2018-04-25T15:28:07.428Z,4.75
2018-04-25T15:30:34.054Z,4.95
2018-04-25T15:33:00.688Z,3.62
2018-04-25T15:35:27.440Z,4.93
2018-04-25T15:37:54.107Z,4.75
2018-04-25T15:40:20.708Z,4.87
2018-04-25T15:42:47.489Z,4.72
2018-04-25T15:45:14.128Z,3.15
2018-04-25T15:47:40.756Z,3.40
2018-04-25T15:50:07.479Z,3.05
2018-04-25T15:52:34.100Z,3.00
2018-04-25T15:55:00.743Z,3.12
2018-04-25T15:57:27.389Z,3.10
2018-04-25T15:59:54.018Z,3.12
2018-04-25T16:02:20.638Z,3.20
2018-04-25T16:04:47.285Z,2.78
2018-04-25T16:07:13.906Z,3.25
2018-04-25T16:09:40.595Z,3.20
2018-04-25T16:12:07.260Z,2.85
2018-04-25T16:14:33.867Z,3.08
2018-04-25T16:17:00.599Z,3.10
2018-04-25T16:19:27.259Z,3.40
2018-04-25T16:21:53.889Z,2.60
2018-04-25T16:24:20.540Z,3.47
2018-04-25T16:26:47.341Z,3.45
2018-04-25T16:29:13.904Z,3.20
2018-04-25T16:31:40.531Z,3.00
2018-04-25T16:34:07.193Z,3.30
2018-04-25T16:36:33.806Z,2.87
2018-04-25T16:39:00.435Z,3.40
2018-04-25T16:41:27.102Z,3.20
2018-04-25T16:43:53.751Z,2.65
2018-04-25T16:46:20.390Z,3.37
2018-04-25T16:48:47.122Z,2.58
2018-04-25T16:51:13.772Z,3.65
2018-04-25T16:53:40.396Z,3.72
2018-04-25T16:56:07.034Z,4.22
2018-04-25T16:58:33.660Z,3.47
2018-04-25T17:01:00.332Z,3.80
2018-04-25T17:03:27.071Z,4.15
2018-04-25T17:05:53.811Z,3.47
2018-04-25T17:08:20.451Z,3.58
2018-04-25T17:10:47.092Z,3.00
2018-04-25T17:13:13.720Z,4.78
2018-04-25T17:15:40.338Z,3.50
2018-04-25T17:18:07.031Z,3.97
2018-04-25T17:20:33.659Z,3.70
2018-04-25T17:23:00.337Z,3.28
2018-04-25T17:25:26.927Z,4.55
2018-04-25T17:27:53.546Z,4.15
2018-04-25T17:30:20.194Z,3.90
2018-04-25T17:32:46.835Z,3.90
2018-04-25T17:35:13.460Z,4.28
2018-04-25T17:37:40.084Z,4.10
2018-04-25T17:40:06.759Z,4.10
2018-04-25T17:42:33.490Z,4.93
2018-04-25T17:45:00.179Z,4.60
2018-04-25T17:47:26.815Z,4.53
2018-04-25T17:49:53.441Z,5.43
2018-04-25T17:52:20.159Z,4.12
2018-04-25T17:54:46.793Z,4.40
2018-04-25T17:57:13.416Z,4.22
2018-04-25T17:59:40.039Z,4.87
2018-04-25T18:02:06.689Z,5.15
2018-04-25T18:04:33.351Z,5.18
2018-04-25T18:06:59.967Z,4.82
2018-04-25T18:09:26.612Z,4.35
2018-04-25T18:11:53.230Z,4.57
2018-04-25T18:14:19.877Z,4.00
2018-04-25T18:16:46.576Z,4.85
2018-04-25T18:19:13.183Z,5.35
2018-04-25T18:21:39.806Z,4.70
2018-04-25T18:24:06.444Z,5.30
2018-04-25T18:26:33.063Z,4.43
2018-04-25T18:28:59.771Z,5.22
2018-04-25T18:31:26.479Z,5.55
2018-04-25T18:33:53.122Z,4.82
2018-04-25T18:36:19.743Z,4.12
2018-04-25T18:38:46.380Z,5.22
2018-04-25T18:41:13.040Z,4.62
2018-04-25T18:43:39.676Z,5.07
2018-04-25T18:46:06.419Z,5.40
2018-04-25T18:48:33.036Z,5.45
2018-04-25T18:50:59.700Z,6.57
2018-04-25T18:53:26.439Z,5.93
2018-04-25T18:55:53.061Z,5.93
2018-04-25T18:58:19.685Z,5.60
2018-04-25T19:00:46.327Z,4.80
2018-04-25T19:03:12.994Z,5.43
2018-04-25T19:05:39.633Z,4.68
2018-04-25T19:08:06.372Z,4.57
2018-04-25T19:10:32.991Z,4.82
2018-04-25T19:12:59.614Z,4.60
2018-04-25T19:15:26.315Z,4.97
2018-04-25T19:17:53.030Z,4.20
2018-04-25T19:20:19.656Z,4.32
2018-04-25T19:22:46.338Z,4.62
2018-04-25T19:25:13.048Z,4.32
2018-04-25T19:27:39.697Z,3.90
2018-04-25T19:30:06.337Z,4.40
2018-04-25T19:32:32.954Z,4.50
2018-04-25T19:34:59.606Z,5.00
2018-04-25T19:37:26.327Z,4.10
2018-04-25T19:39:52.953Z,4.35
2018-04-25T19:42:19.629Z,4.20
2018-04-25T19:44:46.430Z,4.10
2018-04-25T19:47:13.003Z,4.65
2018-04-25T19:49:39.654Z,4.70
2018-04-25T19:52:06.397Z,4.30
2018-04-25T19:54:33.019Z,4.43
2018-04-25T19:56:59.666Z,4.35
2018-04-25T19:59:26.308Z,4.78
2018-04-25T20:01:52.929Z,4.07
2018-04-25T20:04:19.559Z,4.70
2018-04-25T20:06:46.195Z,4.50
2018-04-25T20:09:12.822Z,4.75
2018-04-25T20:11:39.498Z,4.68
2018-04-25T20:14:06.130Z,4.28
2018-04-25T20:16:32.780Z,5.00
2018-04-25T20:18:59.424Z,4.78
2018-04-25T20:21:26.069Z,3.95
2018-04-25T20:23:52.695Z,4.22
2018-04-25T20:26:19.318Z,4.35
2018-04-25T20:28:45.974Z,3.65
2018-04-25T20:31:12.596Z,4.15
2018-04-25T20:33:39.214Z,4.37
2018-04-25T20:36:05.850Z,4.25
2018-04-25T20:38:32.557Z,5.78
2018-04-25T20:40:59.275Z,5.68
2018-04-25T20:43:26.040Z,5.03
2018-04-25T20:45:52.679Z,5.05
2018-04-25T20:48:19.394Z,4.60
2018-04-25T20:50:46.134Z,4.10
2018-04-25T20:53:12.751Z,5.32
2018-04-25T20:55:39.369Z,4.30
2018-04-25T20:58:06.011Z,4.35
2018-04-25T21:00:32.719Z,3.85
2018-04-25T21:02:59.338Z,3.80
2018-04-25T21:05:25.984Z,3.72
2018-04-25T21:07:52.607Z,4.00
2018-04-25T21:10:19.227Z,3.90
2018-04-25T21:12:45.863Z,3.80
2018-04-25T21:15:12.493Z,3.97
2018-04-25T21:17:39.115Z,3.80
2018-04-25T21:20:05.750Z,4.15
2018-04-25T21:22:32.376Z,4.10
2018-04-25T21:24:59.077Z,4.60
2018-04-25T21:27:25.726Z,4.50
2018-04-25T21:29:52.347Z,4.30
2018-04-25T21:32:19.008Z,4.53
2018-04-25T21:34:45.643Z,4.87
2018-04-25T21:37:12.272Z,4.78
2018-04-25T21:39:38.894Z,4.53
2018-04-25T21:42:05.557Z,4.55
2018-04-25T21:44:32.204Z,4.28
2018-04-25T21:46:58.823Z,3.70
2018-04-25T21:49:25.467Z,4.40
2018-04-25T21:51:52.122Z,4.60
2018-04-25T21:54:18.744Z,4.60
2018-04-25T21:56:45.496Z,4.12
2018-04-25T21:59:12.124Z,4.22
2018-04-25T22:01:38.770Z,4.47
2018-04-25T22:04:05.411Z,4.37
2018-04-25T22:06:32.027Z,4.20
2018-04-25T22:08:58.648Z,4.97
2018-04-25T22:11:25.323Z,4.37
2018-04-25T22:13:51.955Z,4.22
2018-04-25T22:16:18.588Z,5.70
2018-04-25T22:18:45.271Z,3.80
2018-04-25T22:21:11.906Z,4.35
2018-04-25T22:23:38.523Z,4.37
2018-04-25T22:26:05.166Z,4.43
2018-04-25T22:28:31.795Z,4.12
2018-04-25T22:30:58.425Z,4.55
2018-04-25T22:33:25.065Z,4.15
2018-04-25T22:35:51.720Z,4.47
2018-04-25T22:38:18.367Z,5.05
2018-04-25T22:40:45.003Z,4.53
2018-04-25T22:43:11.661Z,4.22
2018-04-25T22:45:38.278Z,4.68
2018-04-25T22:48:05.009Z,5.03
2018-04-25T22:50:31.650Z,4.50
2018-04-25T22:52:58.303Z,4.22
2018-04-25T22:55:24.930Z,4.47
2018-04-25T22:57:51.571Z,4.28
2018-04-25T23:00:18.216Z,4.45
2018-04-25T23:02:44.842Z,5.32
2018-04-25T23:05:11.491Z,4.43
2018-04-25T23:07:38.116Z,4.45
2018-04-25T23:10:04.867Z,4.50
2018-04-25T23:12:31.493Z,4.82
2018-04-25T23:14:58.177Z,4.15
2018-04-25T23:17:24.816Z,3.95
2018-04-25T23:19:51.539Z,4.80
2018-04-25T23:22:18.193Z,4.65
2018-04-25T23:24:44.835Z,4.05
2018-04-25T23:27:11.455Z,4.10
2018-04-25T23:29:38.184Z,4.57
2018-04-25T23:32:04.814Z,4.60
2018-04-25T23:34:31.434Z,4.05
2018-04-25T23:36:58.055Z,3.92
2018-04-25T23:39:24.692Z,4.45
2018-04-25T23:41:51.310Z,4.85
2018-04-25T23:44:17.936Z,4.65
2018-04-25T23:46:44.665Z,5.30
2018-04-25T23:49:11.404Z,4.50
2018-04-25T23:51:38.035Z,4.65
2018-04-25T23:54:04.686Z,3.83
2018-04-25T23:56:31.311Z,4.10
2018-04-25T23:58:57.935Z,3.90
